createdAt,value
2018-11-03T00:00:18.088Z,11.04
2018-11-03T00:01:18.888Z,11.13
2018-11-03T00:02:18.990Z,11.18
2018-11-03T00:03:19.515Z,11.08
2018-11-03T00:04:21.035Z,11.18
2018-11-03T00:05:21.554Z,11.16
2018-11-03T00:06:22.938Z,11.1
2018-11-03T00:07:24.017Z,11.16
2018-11-03T00:08:24.470Z,11.08
2018-11-03T00:09:26.058Z,11.18
2018-11-03T00:10:26.578Z,11.12
2018-11-03T00:11:27.372Z,11.16
2018-11-03T00:12:27.604Z,11.12
2018-11-03T00:13:29.707Z,11.02
2018-11-03T00:14:29.517Z,11.07
2018-11-03T00:15:30.753Z,11.04
2018-11-03T00:16:31.839Z,11.1
2018-11-03T00:17:33.217Z,11.05
2018-11-03T00:18:33.633Z,11.15
2018-11-03T00:19:35.007Z,11.08
2018-11-03T00:20:35.518Z,11.1
2018-11-03T00:21:36.054Z,11.12
2018-11-03T00:22:37.071Z,11.12
2018-11-03T00:23:37.585Z,11.13
2018-11-03T00:24:38.964Z,11.12
2018-11-03T00:25:39.772Z,11.02
2018-11-03T00:26:40.853Z,11.01
2018-11-03T00:27:42.512Z,11.02
2018-11-03T00:28:42.635Z,11.02
2018-11-03T00:29:43.426Z,11.04
2018-11-03T00:30:44.221Z,11.01
2018-11-03T00:31:45.736Z,11.18
2018-11-03T00:32:46.247Z,11.16
2018-11-03T00:33:46.682Z,11.16
2018-11-03T00:34:47.469Z,11.15
2018-11-03T00:35:47.981Z,11.07
2018-11-03T00:36:48.768Z,11.1
2018-11-03T00:37:50.135Z,11.12
2018-11-03T00:38:50.345Z,11.15
2018-11-03T00:39:50.859Z,11.16
2018-11-03T00:40:51.960Z,11.12
2018-11-03T00:41:53.037Z,11.07
2018-11-03T00:42:55.092Z,11.13
2018-11-03T00:43:55.231Z,11.2
2018-11-03T00:44:55.471Z,11.16
2018-11-03T00:45:56.702Z,11.04
2018-11-03T00:46:58.073Z,11
2018-11-03T00:47:58.586Z,10.89
2018-11-03T00:48:58.865Z,10.75
2018-11-03T00:50:00.377Z,10.8
2018-11-03T00:51:00.886Z,10.84
2018-11-03T00:52:02.400Z,10.98
2018-11-03T00:53:02.996Z,10.95
2018-11-03T00:54:04.334Z,10.89
2018-11-03T00:55:05.416Z,10.95
2018-11-03T00:56:06.569Z,10.92
2018-11-03T00:57:07.087Z,10.87
2018-11-03T00:58:07.874Z,10.92
2018-11-03T00:59:08.746Z,10.94
2018-11-03T01:00:08.986Z,11.04
2018-11-03T01:01:09.785Z,10.9
2018-11-03T01:02:10.576Z,11.04
2018-11-03T01:03:11.367Z,10.98
2018-11-03T01:04:12.451Z,11.07
2018-11-03T01:05:13.590Z,10.98
2018-11-03T01:06:13.389Z,10.97
2018-11-03T01:07:13.916Z,10.86
2018-11-03T01:08:15.433Z,10.9
2018-11-03T01:09:16.269Z,10.84
2018-11-03T01:10:17.116Z,10.75
2018-11-03T01:11:17.918Z,10.69
2018-11-03T01:12:19.554Z,10.69
2018-11-03T01:13:20.629Z,10.61
2018-11-03T01:14:21.419Z,10.61
2018-11-03T01:15:22.488Z,10.38
2018-11-03T01:16:23.591Z,10.43
2018-11-03T01:17:24.515Z,10.41
2018-11-03T01:18:24.877Z,10.45
2018-11-03T01:19:25.440Z,10.51
2018-11-03T01:20:25.523Z,10.55
2018-11-03T01:21:27.178Z,10.62
2018-11-03T01:22:27.594Z,10.59
2018-11-03T01:23:28.539Z,10.79
2018-11-03T01:24:29.366Z,10.77
2018-11-03T01:25:29.444Z,10.82
2018-11-03T01:26:30.510Z,10.86
2018-11-03T01:27:31.022Z,10.79
2018-11-03T01:28:32.103Z,10.94
2018-11-03T01:29:32.952Z,10.82
2018-11-03T01:30:33.751Z,10.94
2018-11-03T01:31:34.677Z,10.95
2018-11-03T01:32:36.255Z,10.87
2018-11-03T01:33:36.573Z,10.87
2018-11-03T01:34:36.683Z,10.82
2018-11-03T01:35:37.218Z,10.92
2018-11-03T01:36:38.556Z,10.89
2018-11-03T01:37:38.642Z,10.94
2018-11-03T01:38:40.284Z,10.82
2018-11-03T01:39:41.120Z,10.82
2018-11-03T01:40:41.636Z,10.89
2018-11-03T01:41:43.777Z,10.95
2018-11-03T01:42:44.703Z,10.94
2018-11-03T01:43:45.493Z,10.98
2018-11-03T01:44:46.857Z,10.95
2018-11-03T01:45:48.220Z,10.87
2018-11-03T01:46:48.015Z,10.86
2018-11-03T01:47:48.891Z,10.87
2018-11-03T01:48:50.286Z,10.86
2018-11-03T01:49:51.694Z,10.82
2018-11-03T01:50:51.766Z,10.82
2018-11-03T01:51:52.282Z,10.76
2018-11-03T01:52:54.076Z,10.82
2018-11-03T01:53:55.669Z,10.94
2018-11-03T01:54:55.186Z,10.9
2018-11-03T01:55:55.987Z,10.82
2018-11-03T01:56:56.515Z,10.94
2018-11-03T01:57:57.887Z,10.95
2018-11-03T01:58:58.855Z,10.89
2018-11-03T01:59:59.254Z,10.9
2018-11-03T02:01:00.064Z,10.92
2018-11-03T02:02:00.855Z,10.87
2018-11-03T02:03:02.387Z,10.97
2018-11-03T02:04:03.193Z,10.87
2018-11-03T02:05:03.836Z,10.92
2018-11-03T02:06:04.357Z,11.05
2018-11-03T02:07:04.701Z,10.98
2018-11-03T02:08:06.494Z,10.92
2018-11-03T02:09:07.601Z,10.94
2018-11-03T02:10:08.169Z,11.01
2018-11-03T02:11:09.813Z,11.02
2018-11-03T02:12:10.331Z,10.95
2018-11-03T02:13:11.128Z,10.9
2018-11-03T02:14:12.202Z,11.02
2018-11-03T02:15:13.004Z,11.07
2018-11-03T02:16:14.094Z,10.97
2018-11-03T02:17:14.607Z,10.97
2018-11-03T02:18:16.504Z,11.08
2018-11-03T02:19:17.298Z,11.04
2018-11-03T02:20:17.443Z,11.02
2018-11-03T02:21:18.100Z,11.02
2018-11-03T02:22:19.183Z,11.04
2018-11-03T02:23:19.814Z,11.08
2018-11-03T02:24:20.615Z,11.01
2018-11-03T02:25:21.777Z,11.05
2018-11-03T02:26:22.582Z,11.02
2018-11-03T02:27:23.373Z,11.07
2018-11-03T02:28:24.003Z,10.95
2018-11-03T02:29:25.088Z,11.02
2018-11-03T02:30:26.511Z,10.94
2018-11-03T02:31:28.071Z,10.95
2018-11-03T02:32:29.426Z,11.04
2018-11-03T02:33:30.348Z,11.02
2018-11-03T02:34:30.696Z,11.02
2018-11-03T02:35:31.510Z,10.95
2018-11-03T02:36:32.874Z,11.07
2018-11-03T02:37:33.572Z,10.83
2018-11-03T02:38:34.922Z,10.9
2018-11-03T02:39:34.998Z,10.9
2018-11-03T02:40:35.852Z,10.89
2018-11-03T02:41:37.328Z,11.02
2018-11-03T02:42:37.999Z,11
2018-11-03T02:43:38.952Z,11.02
2018-11-03T02:44:39.600Z,11.08
2018-11-03T02:45:40.670Z,11.07
2018-11-03T02:46:41.188Z,11.02
2018-11-03T02:47:42.280Z,10.86
2018-11-03T02:48:44.213Z,10.83
2018-11-03T02:49:44.006Z,10.86
2018-11-03T02:50:45.084Z,10.75
2018-11-03T02:51:46.730Z,10.69
2018-11-03T02:52:59.355Z,10.62
2018-11-03T02:53:59.924Z,10.58
2018-11-03T02:55:01.006Z,10.36
2018-11-03T02:56:01.801Z,10.43
2018-11-03T02:57:02.712Z,10.39
2018-11-03T02:58:03.910Z,10.41
2018-11-03T02:59:03.988Z,10.39
2018-11-03T03:00:05.057Z,10.3
2018-11-03T03:01:05.449Z,10.27
2018-11-03T03:02:05.252Z,10.3
2018-11-03T03:03:07.052Z,10.2
2018-11-03T03:04:08.192Z,10.28
2018-11-03T03:05:09.274Z,10.25
2018-11-03T03:06:10.097Z,10.25
2018-11-03T03:07:11.459Z,10.21
2018-11-03T03:08:12.266Z,10.05
2018-11-03T03:09:11.976Z,9.97
2018-11-03T03:10:12.070Z,9.92
2018-11-03T03:11:13.150Z,9.94
2018-11-03T03:12:14.510Z,9.81
2018-11-03T03:13:14.586Z,9.87
2018-11-03T03:14:15.435Z,9.94
2018-11-03T03:15:16.796Z,9.91
2018-11-03T03:16:17.492Z,9.95
2018-11-03T03:17:17.852Z,10.07
2018-11-03T03:18:18.943Z,10.13
2018-11-03T03:19:18.737Z,10.2
2018-11-03T03:20:19.364Z,10.34
2018-11-03T03:21:20.160Z,10.38
2018-11-03T03:22:20.786Z,10.34
2018-11-03T03:23:21.343Z,10.36
2018-11-03T03:24:23.107Z,10.46
2018-11-03T03:25:24.125Z,10.46
2018-11-03T03:26:24.766Z,10.61
2018-11-03T03:27:25.574Z,10.67
2018-11-03T03:28:26.402Z,10.62
2018-11-03T03:29:28.209Z,10.62
2018-11-03T03:30:29.198Z,10.71
2018-11-03T03:31:30.041Z,10.76
2018-11-03T03:32:30.384Z,10.77
2018-11-03T03:33:31.020Z,10.8
2018-11-03T03:34:31.735Z,10.79
2018-11-03T03:35:33.090Z,10.86
2018-11-03T03:36:34.744Z,10.84
2018-11-03T03:37:34.827Z,10.86
2018-11-03T03:38:34.961Z,10.94
2018-11-03T03:39:36.324Z,10.9
2018-11-03T03:40:36.705Z,10.89
2018-11-03T03:41:38.357Z,10.9
2018-11-03T03:42:39.432Z,10.75
2018-11-03T03:43:40.329Z,10.76
2018-11-03T03:44:41.195Z,10.72
2018-11-03T03:45:42.284Z,10.77
2018-11-03T03:46:43.380Z,10.79
2018-11-03T03:47:44.218Z,10.87
2018-11-03T03:48:45.599Z,10.8
2018-11-03T03:49:46.281Z,10.72
2018-11-03T03:50:47.646Z,10.62
2018-11-03T03:51:48.730Z,10.58
2018-11-03T03:52:48.798Z,10.76
2018-11-03T03:53:50.419Z,10.79
2018-11-03T03:54:51.376Z,10.77
2018-11-03T03:55:52.171Z,10.75
2018-11-03T03:56:53.821Z,10.79
2018-11-03T03:57:54.172Z,10.79
2018-11-03T03:58:54.899Z,10.86
2018-11-03T03:59:55.978Z,10.84
2018-11-03T04:00:57.617Z,10.9
2018-11-03T04:01:58.150Z,10.84
2018-11-03T04:02:59.553Z,11
2018-11-03T04:03:59.618Z,10.86
2018-11-03T04:05:01.037Z,10.87
2018-11-03T04:06:02.091Z,10.86
2018-11-03T04:07:03.617Z,10.87
2018-11-03T04:08:04.297Z,10.87
2018-11-03T04:09:04.660Z,10.87
2018-11-03T04:10:05.028Z,10.97
2018-11-03T04:11:06.439Z,10.86
2018-11-03T04:12:07.014Z,10.89
2018-11-03T04:13:08.110Z,10.89
2018-11-03T04:14:09.195Z,10.97
2018-11-03T04:15:09.503Z,10.9
2018-11-03T04:16:10.898Z,10.97
2018-11-03T04:17:12.449Z,11
2018-11-03T04:18:12.734Z,11.04
2018-11-03T04:19:13.107Z,10.97
2018-11-03T04:20:13.914Z,11.02
2018-11-03T04:21:14.432Z,11.02
2018-11-03T04:22:15.661Z,10.97
2018-11-03T04:23:16.019Z,10.94
2018-11-03T04:24:16.955Z,10.86
2018-11-03T04:25:17.598Z,10.84
2018-11-03T04:26:18.413Z,10.8
2018-11-03T04:27:18.397Z,10.76
2018-11-03T04:28:19.211Z,10.77
2018-11-03T04:29:19.666Z,10.79
2018-11-03T04:30:21.388Z,10.83
2018-11-03T04:31:21.792Z,10.98
2018-11-03T04:32:22.428Z,10.9
2018-11-03T04:33:23.060Z,10.98
2018-11-03T04:34:23.774Z,10.97
2018-11-03T04:35:24.504Z,10.95
2018-11-03T04:36:25.876Z,10.86
2018-11-03T04:37:26.112Z,10.9
2018-11-03T04:38:27.467Z,10.84
2018-11-03T04:39:28.512Z,10.89
2018-11-03T04:40:29.673Z,10.82
2018-11-03T04:41:30.755Z,10.79
2018-11-03T04:42:31.722Z,10.79
2018-11-03T04:43:33.103Z,10.77
2018-11-03T04:44:33.182Z,10.75
2018-11-03T04:45:34.284Z,10.69
2018-11-03T04:46:35.191Z,10.71
2018-11-03T04:47:35.996Z,10.65
2018-11-03T04:48:36.512Z,10.75
2018-11-03T04:49:37.630Z,10.77
2018-11-03T04:50:39.165Z,10.75
2018-11-03T04:51:40.240Z,10.72
2018-11-03T04:52:41.314Z,10.72
2018-11-03T04:53:41.829Z,10.57
2018-11-03T04:54:42.623Z,10.71
2018-11-03T04:55:42.831Z,10.61
2018-11-03T04:56:44.353Z,10.76
2018-11-03T04:57:44.865Z,10.72
2018-11-03T04:58:46.284Z,10.69
2018-11-03T04:59:47.110Z,10.71
2018-11-03T05:00:48.183Z,10.79
2018-11-03T05:01:47.982Z,10.69
2018-11-03T05:02:49.216Z,10.77
2018-11-03T05:03:50.235Z,10.75
2018-11-03T05:04:51.027Z,10.71
2018-11-03T05:05:51.895Z,10.75
2018-11-03T05:06:52.419Z,10.69
2018-11-03T05:07:52.932Z,10.62
2018-11-03T05:08:54.043Z,10.65
2018-11-03T05:09:55.628Z,10.65
2018-11-03T05:10:56.076Z,10.71
2018-11-03T05:11:56.316Z,10.72
2018-11-03T05:12:57.106Z,10.79
2018-11-03T05:13:58.266Z,10.77
2018-11-03T05:14:58.921Z,10.84
2018-11-03T05:15:59.387Z,10.97
2018-11-03T05:17:00.182Z,10.9
2018-11-03T05:18:00.699Z,10.89
2018-11-03T05:19:01.780Z,10.84
2018-11-03T05:20:02.865Z,10.86
2018-11-03T05:21:04.236Z,10.92
2018-11-03T05:22:04.481Z,10.97
2018-11-03T05:23:05.999Z,10.87
2018-11-03T05:24:07.080Z,11
2018-11-03T05:25:07.892Z,11.01
2018-11-03T05:26:09.323Z,11.02
2018-11-03T05:27:09.591Z,11.01
2018-11-03T05:28:10.683Z,11.08
2018-11-03T05:29:11.763Z,11.02
2018-11-03T05:30:12.162Z,11.08
2018-11-03T05:31:13.521Z,11.07
2018-11-03T05:32:14.803Z,11.01
2018-11-03T05:33:16.478Z,10.97
2018-11-03T05:34:16.573Z,10.98
2018-11-03T05:35:18.096Z,10.86
2018-11-03T05:36:19.861Z,10.9
2018-11-03T05:37:20.956Z,10.87
2018-11-03T05:38:21.468Z,10.9
2018-11-03T05:39:21.970Z,11
2018-11-03T05:40:23.635Z,10.94
2018-11-03T05:41:23.916Z,10.94
2018-11-03T05:42:24.283Z,10.95
2018-11-03T05:43:24.639Z,10.86
2018-11-03T05:44:26.050Z,10.86
2018-11-03T05:45:26.856Z,10.77
2018-11-03T05:46:29.329Z,10.82
2018-11-03T05:47:29.356Z,10.72
2018-11-03T05:48:29.873Z,10.64
2018-11-03T05:49:30.958Z,10.59
2018-11-03T05:50:31.924Z,10.65
2018-11-03T05:51:32.399Z,10.58
2018-11-03T05:52:33.491Z,10.62
2018-11-03T05:53:34.283Z,10.65
2018-11-03T05:54:34.785Z,10.65
2018-11-03T05:55:36.134Z,10.62
2018-11-03T05:56:36.285Z,10.57
2018-11-03T05:57:36.931Z,10.62
2018-11-03T05:58:37.763Z,10.69
2018-11-03T05:59:39.194Z,10.67
2018-11-03T06:00:40.591Z,10.72
2018-11-03T06:01:41.269Z,10.65
2018-11-03T06:02:41.621Z,10.64
2018-11-03T06:03:42.047Z,10.72
2018-11-03T06:04:43.125Z,10.65
2018-11-03T06:05:44.208Z,10.65
2018-11-03T06:06:45.530Z,10.76
2018-11-03T06:07:45.328Z,10.61
2018-11-03T06:08:47.270Z,10.64
2018-11-03T06:09:47.933Z,10.57
2018-11-03T06:10:49.009Z,10.62
2018-11-03T06:11:50.387Z,10.64
2018-11-03T06:12:51.496Z,10.71
2018-11-03T06:13:52.293Z,10.71
2018-11-03T06:14:53.690Z,10.8
2018-11-03T06:15:54.357Z,10.89
2018-11-03T06:16:54.482Z,10.84
2018-11-03T06:17:55.911Z,10.82
2018-11-03T06:18:56.005Z,10.89
2018-11-03T06:19:57.383Z,10.94
2018-11-03T06:20:58.524Z,10.84
2018-11-03T06:21:59.202Z,10.92
2018-11-03T06:23:01.054Z,10.95
2018-11-03T06:24:00.832Z,10.97
2018-11-03T06:25:01.930Z,11.02
2018-11-03T06:26:02.471Z,10.98
2018-11-03T06:27:03.122Z,10.97
2018-11-03T06:28:04.656Z,10.94
2018-11-03T06:29:04.826Z,10.98
2018-11-03T06:30:05.628Z,10.92
2018-11-03T06:31:06.154Z,10.94
2018-11-03T06:32:06.959Z,10.94
2018-11-03T06:33:07.481Z,10.87
2018-11-03T06:34:08.551Z,10.86
2018-11-03T06:35:10.677Z,10.9
2018-11-03T06:36:10.112Z,10.98
2018-11-03T06:37:10.940Z,11
2018-11-03T06:38:11.119Z,11.05
2018-11-03T06:39:11.929Z,10.97
2018-11-03T06:40:13.011Z,11.07
2018-11-03T06:41:13.837Z,11.04
2018-11-03T06:42:14.641Z,10.98
2018-11-03T06:43:16.016Z,10.84
2018-11-03T06:44:16.567Z,10.95
2018-11-03T06:45:16.805Z,10.9
2018-11-03T06:46:17.611Z,10.92
2018-11-03T06:47:19.495Z,11.02
2018-11-03T06:48:19.744Z,11.04
2018-11-03T06:49:20.266Z,11
2018-11-03T06:50:21.011Z,11.12
2018-11-03T06:51:21.529Z,11.12
2018-11-03T06:52:23.497Z,11.02
2018-11-03T06:53:22.995Z,11
2018-11-03T06:54:24.137Z,10.94
2018-11-03T06:55:24.650Z,10.98
2018-11-03T06:56:26.007Z,10.95
2018-11-03T06:57:26.429Z,11.02
2018-11-03T06:58:27.547Z,11.05
2018-11-03T06:59:28.635Z,10.98
2018-11-03T07:00:29.841Z,11.05
2018-11-03T07:01:30.373Z,11.08
2018-11-03T07:02:31.466Z,11.04
2018-11-03T07:03:32.266Z,11.05
2018-11-03T07:04:32.681Z,11.16
2018-11-03T07:05:33.507Z,11.15
2018-11-03T07:06:34.646Z,11.1
2018-11-03T07:07:35.217Z,11.05
2018-11-03T07:08:36.872Z,11.18
2018-11-03T07:09:37.011Z,11.25
2018-11-03T07:10:38.102Z,11.2
2018-11-03T07:11:38.054Z,11.23
2018-11-03T07:12:41.157Z,11.23
2018-11-03T07:12:52.555Z,11.25
2018-11-03T07:13:52.229Z,11.18
2018-11-03T07:14:54.526Z,11.19
2018-11-03T07:15:54.135Z,11.22
2018-11-03T07:16:54.655Z,11.25
2018-11-03T07:17:55.477Z,11.16
2018-11-03T07:18:57.135Z,11.2
2018-11-03T07:19:57.653Z,11.19
2018-11-03T07:20:59.294Z,11.15
2018-11-03T07:22:00.406Z,11.19
2018-11-03T07:23:00.770Z,11.19
2018-11-03T07:24:02.178Z,11.26
2018-11-03T07:25:02.555Z,11.3
2018-11-03T07:26:04.002Z,11.26
2018-11-03T07:27:04.646Z,11.31
2018-11-03T07:28:05.167Z,11.33
2018-11-03T07:29:06.242Z,11.33
2018-11-03T07:30:06.766Z,11.31
2018-11-03T07:31:07.873Z,11.33
2018-11-03T07:32:08.378Z,11.41
2018-11-03T07:33:09.469Z,11.4
2018-11-03T07:34:09.888Z,11.44
2018-11-03T07:35:10.693Z,11.41
2018-11-03T07:36:11.497Z,11.53
2018-11-03T07:37:13.290Z,11.45
2018-11-03T07:38:14.095Z,11.51
2018-11-03T07:39:14.446Z,11.59
2018-11-03T07:40:15.527Z,11.51
2018-11-03T07:41:16.059Z,11.59
2018-11-03T07:42:17.265Z,11.55
2018-11-03T07:43:18.066Z,11.53
2018-11-03T07:44:18.665Z,11.55
2018-11-03T07:45:20.181Z,11.56
2018-11-03T07:46:21.256Z,11.56
2018-11-03T07:47:22.495Z,11.59
2018-11-03T07:48:25.777Z,11.6
2018-11-03T07:49:25.593Z,11.68
2018-11-03T07:50:25.396Z,11.68
2018-11-03T07:51:26.515Z,11.6
2018-11-03T07:52:28.181Z,11.45
2018-11-03T07:53:29.306Z,11.55
2018-11-03T07:54:30.403Z,11.58
2018-11-03T07:55:30.504Z,11.45
2018-11-03T07:56:31.659Z,11.51
2018-11-03T07:57:32.468Z,11.56
2018-11-03T07:58:33.278Z,11.6
2018-11-03T07:59:33.970Z,11.58
2018-11-03T08:00:35.467Z,11.44
2018-11-03T08:01:35.543Z,11.59
2018-11-03T08:02:36.066Z,11.59
2018-11-03T08:03:37.422Z,11.6
2018-11-03T08:04:37.736Z,11.55
2018-11-03T08:05:38.814Z,11.59
2018-11-03T08:06:40.358Z,11.53
2018-11-03T08:07:41.142Z,11.56
2018-11-03T08:08:41.944Z,11.51
2018-11-03T08:09:42.763Z,11.62
2018-11-03T08:10:44.986Z,11.67
2018-11-03T08:11:44.977Z,11.63
2018-11-03T08:12:46.049Z,11.63
2018-11-03T08:13:46.566Z,11.59
2018-11-03T08:14:47.739Z,11.44
2018-11-03T08:15:49.239Z,11.27
2018-11-03T08:16:50.034Z,11.34
2018-11-03T08:17:49.830Z,11.38
2018-11-03T08:18:51.070Z,11.34
2018-11-03T08:19:51.877Z,11.38
2018-11-03T08:20:52.404Z,11.41
2018-11-03T08:21:53.500Z,11.45
2018-11-03T08:22:54.425Z,11.55
2018-11-03T08:23:55.797Z,11.65
2018-11-03T08:24:56.024Z,11.67
2018-11-03T08:25:56.384Z,11.71
2018-11-03T08:26:57.186Z,11.73
2018-11-03T08:27:58.580Z,11.8
2018-11-03T08:28:59.696Z,11.8
2018-11-03T08:30:01.392Z,11.68
2018-11-03T08:31:01.758Z,11.6
2018-11-03T08:32:03.351Z,11.68
2018-11-03T08:33:04.156Z,11.67
2018-11-03T08:34:05.194Z,11.76
2018-11-03T08:35:05.784Z,11.8
2018-11-03T08:36:07.136Z,11.83
2018-11-03T08:37:07.654Z,11.85
2018-11-03T08:38:08.902Z,11.95
2018-11-03T08:39:09.698Z,11.91
2018-11-03T08:40:10.504Z,11.93
2018-11-03T08:41:10.591Z,11.89
2018-11-03T08:42:11.395Z,11.85
2018-11-03T08:43:12.644Z,11.91
2018-11-03T08:44:13.474Z,12
2018-11-03T08:45:14.327Z,11.88
2018-11-03T08:46:14.568Z,11.97
2018-11-03T08:47:16.304Z,11.97
2018-11-03T08:48:18.340Z,11.95
2018-11-03T08:49:18.091Z,11.88
2018-11-03T08:50:18.444Z,11.91
2018-11-03T08:51:18.972Z,11.88
2018-11-03T08:52:20.491Z,11.86
2018-11-03T08:53:21.878Z,11.88
2018-11-03T08:54:22.970Z,11.95
2018-11-03T08:55:22.823Z,12.02
2018-11-03T08:56:23.904Z,12.05
2018-11-03T08:57:24.721Z,11.99
2018-11-03T08:58:25.453Z,12
2018-11-03T08:59:26.463Z,12.03
2018-11-03T09:00:27.399Z,12.07
2018-11-03T09:01:27.640Z,12.14
2018-11-03T09:02:28.005Z,12.07
2018-11-03T09:03:29.522Z,11.83
2018-11-03T09:04:30.329Z,11.85
2018-11-03T09:05:31.897Z,11.77
2018-11-03T09:06:32.701Z,11.83
2018-11-03T09:07:33.358Z,11.68
2018-11-03T09:08:33.994Z,11.56
2018-11-03T09:09:34.396Z,11.44
2018-11-03T09:10:36.743Z,11.43
2018-11-03T09:11:35.982Z,11.52
2018-11-03T09:12:36.505Z,11.52
2018-11-03T09:13:37.748Z,11.34
2018-11-03T09:14:40.478Z,11.27
2018-11-03T09:15:39.800Z,11.2
2018-11-03T09:16:41.046Z,11.12
2018-11-03T09:17:42.131Z,11.08
2018-11-03T09:18:42.811Z,11.12
2018-11-03T09:19:44.065Z,11
2018-11-03T09:20:44.747Z,11.01
2018-11-03T09:21:45.448Z,10.84
2018-11-03T09:22:45.401Z,10.92
2018-11-03T09:23:46.262Z,10.95
2018-11-03T09:24:47.628Z,10.8
2018-11-03T09:25:48.216Z,10.8
2018-11-03T09:26:49.024Z,10.94
2018-11-03T09:27:49.863Z,10.76
2018-11-03T09:28:50.949Z,10.92
2018-11-03T09:29:51.762Z,10.82
2018-11-03T09:30:52.564Z,10.9
2018-11-03T09:31:55.180Z,11.18
2018-11-03T09:32:54.736Z,11.2
2018-11-03T09:33:56.307Z,11.31
2018-11-03T09:34:56.402Z,11.44
2018-11-03T09:35:57.598Z,11.34
2018-11-03T09:36:59.498Z,11.18
2018-11-03T09:37:59.582Z,11.35
2018-11-03T09:39:01.310Z,11.44
2018-11-03T09:40:01.438Z,11.3
2018-11-03T09:41:02.553Z,11.45
2018-11-03T09:42:03.216Z,11.51
2018-11-03T09:43:04.250Z,11.41
2018-11-03T09:44:04.855Z,11.52
2018-11-03T09:45:06.005Z,11.53
2018-11-03T09:46:06.333Z,11.43
2018-11-03T09:47:08.130Z,11.56
2018-11-03T09:48:08.822Z,11.62
2018-11-03T09:49:09.627Z,11.55
2018-11-03T09:50:10.459Z,11.65
2018-11-03T09:51:12.582Z,11.78
2018-11-03T09:52:11.879Z,11.83
2018-11-03T09:53:13.403Z,11.99
2018-11-03T09:54:14.330Z,11.95
2018-11-03T09:55:15.132Z,11.88
2018-11-03T09:56:15.997Z,11.91
2018-11-03T09:57:17.174Z,11.8
2018-11-03T09:58:18.544Z,11.86
2018-11-03T09:59:18.619Z,11.88
2018-11-03T10:00:18.858Z,11.86
2018-11-03T10:01:19.670Z,11.76
2018-11-03T10:02:20.755Z,11.56
2018-11-03T10:03:21.566Z,11.43
2018-11-03T10:04:22.425Z,11.25
2018-11-03T10:05:23.518Z,11.3
2018-11-03T10:06:24.536Z,11.41
2018-11-03T10:07:24.881Z,11.43
2018-11-03T10:08:25.687Z,11.58
2018-11-03T10:09:26.210Z,11.51
2018-11-03T10:10:28.704Z,11.55
2018-11-03T10:11:28.341Z,11.37
2018-11-03T10:12:29.463Z,11.31
2018-11-03T10:13:30.872Z,11.43
2018-11-03T10:14:31.263Z,11.4
2018-11-03T10:15:31.791Z,11.51
2018-11-03T10:16:32.651Z,11.33
2018-11-03T10:17:33.619Z,11.34
2018-11-03T10:18:33.702Z,11.3
2018-11-03T10:19:34.939Z,11.41
2018-11-03T10:20:35.022Z,11.45
2018-11-03T10:21:35.665Z,11.65
2018-11-03T10:22:35.791Z,11.71
2018-11-03T10:23:36.664Z,11.85
2018-11-03T10:24:37.472Z,11.89
2018-11-03T10:25:38.276Z,11.88
2018-11-03T10:26:39.146Z,11.95
2018-11-03T10:27:40.673Z,12.05
2018-11-03T10:28:40.763Z,12.1
2018-11-03T10:29:41.906Z,12.18
2018-11-03T10:30:42.728Z,12.29
2018-11-03T10:31:42.972Z,12.39
2018-11-03T10:32:45.123Z,12.47
2018-11-03T10:33:47.197Z,12.57
2018-11-03T10:34:46.395Z,12.69
2018-11-03T10:35:47.844Z,12.87
2018-11-03T10:36:48.442Z,12.93
2018-11-03T10:37:49.363Z,12.93
2018-11-03T10:38:49.515Z,12.78
2018-11-03T10:39:50.873Z,12.66
2018-11-03T10:40:52.044Z,12.68
2018-11-03T10:41:52.792Z,12.87
2018-11-03T10:42:53.323Z,12.61
2018-11-03T10:43:54.438Z,12.62
2018-11-03T10:44:56.748Z,12.66
2018-11-03T10:45:56.578Z,12.65
2018-11-03T10:46:57.413Z,12.66
2018-11-03T10:47:57.935Z,12.66
2018-11-03T10:48:59.041Z,12.62
2018-11-03T10:49:59.130Z,12.69
2018-11-03T10:50:59.987Z,12.81
2018-11-03T10:52:00.084Z,12.9
2018-11-03T10:53:00.888Z,12.87
2018-11-03T10:54:02.531Z,12.81
2018-11-03T10:55:03.335Z,12.88
2018-11-03T10:56:04.150Z,13.01
2018-11-03T10:57:06.375Z,12.98
2018-11-03T10:58:05.670Z,13.19
2018-11-03T10:59:06.489Z,12.94
2018-11-03T11:00:07.572Z,12.87
2018-11-03T11:01:08.376Z,12.8
2018-11-03T11:02:08.733Z,12.69
2018-11-03T11:03:09.540Z,12.75
2018-11-03T11:04:10.930Z,12.55
2018-11-03T11:05:11.734Z,12.66
2018-11-03T11:06:12.818Z,12.53
2018-11-03T11:07:13.952Z,12.44
2018-11-03T11:08:14.043Z,12.47
2018-11-03T11:09:16.260Z,12.55
2018-11-03T11:10:16.507Z,12.68
2018-11-03T11:11:17.338Z,12.51
2018-11-03T11:12:18.848Z,12.43
2018-11-03T11:13:19.930Z,12.55
2018-11-03T11:14:21.738Z,12.65
2018-11-03T11:15:21.545Z,12.65
2018-11-03T11:16:23.787Z,12.78
2018-11-03T11:17:23.714Z,12.8
2018-11-03T11:18:23.959Z,12.91
2018-11-03T11:19:25.823Z,13.13
2018-11-03T11:20:26.345Z,13.21
2018-11-03T11:21:26.879Z,13.02
2018-11-03T11:22:27.889Z,13.08
2018-11-03T11:23:29.111Z,13.02
2018-11-03T11:24:29.936Z,13.21
2018-11-03T11:25:32.307Z,13.21
2018-11-03T11:26:31.803Z,13.19
2018-11-03T11:27:32.964Z,13.28
2018-11-03T11:28:33.364Z,13.28
2018-11-03T11:29:34.307Z,13.26
2018-11-03T11:30:35.288Z,13.46
2018-11-03T11:31:38.039Z,13.49
2018-11-03T11:32:38.079Z,13.76
2018-11-03T11:33:37.676Z,13.91
2018-11-03T11:34:39.709Z,13.91
2018-11-03T11:35:39.467Z,13.89
2018-11-03T11:36:40.126Z,14.03
2018-11-03T11:37:42.163Z,14.08
2018-11-03T11:38:42.827Z,14.31
2018-11-03T11:39:43.993Z,14.18
2018-11-03T11:40:43.523Z,14.08
2018-11-03T11:41:44.771Z,14.19
2018-11-03T11:42:47.228Z,14.34
2018-11-03T11:43:47.796Z,14.44
2018-11-03T11:44:49.546Z,14.61
2018-11-03T11:45:50.071Z,14.97
2018-11-03T11:46:51.309Z,14.97
2018-11-03T11:47:52.162Z,15.04
2018-11-03T11:48:53.822Z,15.29
2018-11-03T11:49:54.213Z,15.47
2018-11-03T11:50:55.306Z,15.37
2018-11-03T11:51:55.698Z,15.72
2018-11-03T11:52:56.514Z,15.76
2018-11-03T11:53:57.322Z,15.76
2018-11-03T11:54:59.004Z,15.62
2018-11-03T11:55:59.167Z,15.73
2018-11-03T11:56:59.828Z,15.83
2018-11-03T11:57:59.640Z,15.75
2018-11-03T11:59:00.474Z,15.87
2018-11-03T12:00:01.604Z,15.99
2018-11-03T12:01:02.983Z,16
2018-11-03T12:02:04.122Z,16
2018-11-03T12:03:04.671Z,15.96
2018-11-03T12:04:06.054Z,16.13
2018-11-03T12:05:06.895Z,16
2018-11-03T12:06:07.746Z,16.08
2018-11-03T12:07:08.516Z,16.13
2018-11-03T12:08:09.503Z,16.06
2018-11-03T12:09:10.865Z,16.18
2018-11-03T12:10:11.166Z,16.29
2018-11-03T12:11:12.545Z,16.13
2018-11-03T12:12:13.370Z,16.25
2018-11-03T12:13:14.200Z,16.17
2018-11-03T12:14:15.164Z,16.13
2018-11-03T12:15:15.963Z,16.1
2018-11-03T12:16:17.827Z,16.13
2018-11-03T12:17:18.032Z,16.08
2018-11-03T12:18:18.361Z,16.06
2018-11-03T12:19:18.897Z,15.94
2018-11-03T12:20:20.007Z,15.87
2018-11-03T12:21:20.134Z,15.98
2018-11-03T12:22:21.229Z,15.92
2018-11-03T12:23:22.308Z,15.83
2018-11-03T12:24:23.832Z,15.84
2018-11-03T12:25:25.473Z,15.8
2018-11-03T12:26:26.020Z,15.59
2018-11-03T12:27:26.852Z,15.43
2018-11-03T12:28:28.032Z,15.36
2018-11-03T12:29:28.557Z,15.3
2018-11-03T12:30:29.082Z,15.18
2018-11-03T12:31:29.783Z,15.18
2018-11-03T12:32:31.297Z,15.27
2018-11-03T12:33:32.101Z,15.29
2018-11-03T12:34:33.198Z,15.17
2018-11-03T12:35:33.882Z,15.23
2018-11-03T12:36:34.423Z,15.1
2018-11-03T12:37:35.520Z,15.18
2018-11-03T12:38:36.159Z,15.07
2018-11-03T12:39:37.259Z,15.12
2018-11-03T12:40:38.941Z,15.15
2018-11-03T12:41:39.707Z,15.14
2018-11-03T12:42:42.073Z,15.32
2018-11-03T12:43:41.323Z,15.35
2018-11-03T12:44:41.912Z,15.08
2018-11-03T12:45:43.127Z,15.07
2018-11-03T12:46:43.653Z,14.79
2018-11-03T12:47:45.345Z,14.71
2018-11-03T12:48:45.948Z,14.55
2018-11-03T12:49:46.687Z,14.43
2018-11-03T12:50:47.514Z,14.52
2018-11-03T12:51:48.598Z,14.38
2018-11-03T12:52:49.011Z,14.23
2018-11-03T12:53:49.824Z,14.36
2018-11-03T12:54:52.341Z,14.18
2018-11-03T12:55:51.868Z,14.2
2018-11-03T12:56:52.672Z,14.25
2018-11-03T12:57:53.791Z,14.4
2018-11-03T12:58:54.101Z,14.38
2018-11-03T12:59:54.666Z,14.36
2018-11-03T13:00:55.061Z,14.34
2018-11-03T13:01:56.140Z,14.36
2018-11-03T13:02:56.664Z,14.37
2018-11-03T13:03:56.747Z,14.33
2018-11-03T13:04:58.420Z,14.37
2018-11-03T13:05:58.817Z,14.07
2018-11-03T13:06:59.907Z,14.19